Acmar, Alabama
Current Conditions -  °F | °C
As of 9:53 AM on Saturday 25 Oct 2014 (Local Time) from KBHM Reporting Station
Clear Clear  
Wind Chill: 61°   Ceiling: Unl
Heat Index: 61°   Visibility: 10mi
Dew Point: 47°   Wind: 0mph
Humidity: 60%   Direction: NA
Pressure: 30.15"   Gusts: NA
Location:  33.6013°N, 86.5003°W
Report Text: KBHM 251453Z 00000KT 10SM CLR 16/08 A3015 RMK AO2 SLP207 T01610083 51009
Loading
Personal Weather Stations






























Interactive Weather Map New forecast layout! Learn more

10-Day Weather Forecast

Advertisements
Track Severe Weather on mobile